Time;durP1;ratioP1;P1;durP2;ratioP2;P2;SDS_P1;SDS_P2;PMS_P1;PMS_P2;Temp;Humidity;BMP_temperature;BMP_pressure;BME280_temperature;BME280_humidity;BME280_pressure;Samples;Min_cycle;Max_cycle;Signal;HPM_P1;HPM_P2
2023/05/27 00:02:09;;;;;;;57.40;2.50;;;;;;;;;;5074274;28;20466;-69
2023/05/27 00:04:36;;;;;;;57.37;2.47;;;;;;;;;;5074056;28;20935;-69
2023/05/27 00:07:05;;;;;;;57.57;2.77;;;;;;;;;;5074240;28;20466;-69
2023/05/27 00:09:32;;;;;;;58.83;3.30;;;;;;;;;;5073114;28;20702;-69
2023/05/27 00:12:00;;;;;;;57.57;3.00;;;;;;;;;;5074128;28;20554;-69
2023/05/27 00:14:27;;;;;;;57.27;2.50;;;;;;;;;;5073841;28;20487;-69
2023/05/27 00:16:54;;;;;;;57.23;2.50;;;;;;;;;;5074026;28;20448;-68
2023/05/27 00:19:23;;;;;;;57.27;2.50;;;;;;;;;;5073071;28;20451;-69
2023/05/27 00:21:52;;;;;;;57.37;2.40;;;;;;;;;;5073721;28;20558;-68
2023/05/27 00:24:21;;;;;;;57.00;2.20;;;;;;;;;;5073428;28;20463;-68
2023/05/27 00:26:48;;;;;;;57.17;2.50;;;;;;;;;;5073917;28;20513;-69
2023/05/27 00:29:17;;;;;;;57.60;2.73;;;;;;;;;;5072866;28;20956;-68
2023/05/27 00:31:44;;;;;;;57.87;3.23;;;;;;;;;;5073604;28;20487;-68
2023/05/27 00:34:11;;;;;;;57.07;2.27;;;;;;;;;;5073891;28;20936;-69
2023/05/27 00:36:39;;;;;;;57.60;3.00;;;;;;;;;;5073347;28;20452;-69
2023/05/27 00:39:06;;;;;;;57.07;2.30;;;;;;;;;;5072589;28;20961;-68
2023/05/27 00:41:35;;;;;;;58.67;3.70;;;;;;;;;;5073460;28;20467;-68
2023/05/27 00:44:03;;;;;;;57.60;2.70;;;;;;;;;;5072363;28;20458;-68
2023/05/27 00:46:30;;;;;;;58.20;2.50;;;;;;;;;;5073568;28;20451;-68
2023/05/27 00:48:57;;;;;;;57.80;2.60;;;;;;;;;;5072521;28;20454;-68
2023/05/27 00:51:24;;;;;;;58.17;3.43;;;;;;;;;;5072886;28;20491;-68
2023/05/27 00:53:51;;;;;;;57.37;2.37;;;;;;;;;;5073346;28;20451;-68
2023/05/27 00:56:20;;;;;;;57.27;2.20;;;;;;;;;;5073070;28;20908;-68
2023/05/27 00:58:48;;;;;;;57.53;2.50;;;;;;;;;;5072269;28;20455;-69
2023/05/27 01:01:15;;;;;;;57.47;2.70;;;;;;;;;;5072897;28;20471;-68
2023/05/27 01:03:43;;;;;;;57.17;2.40;;;;;;;;;;5072940;28;20474;-69
2023/05/27 01:06:16;;;;;;;57.30;2.13;;;;;;;;;;5073154;28;20453;-69
2023/05/27 01:08:49;;;;;;;57.30;2.30;;;;;;;;;;5072439;28;20431;-68
2023/05/27 01:11:18;;;;;;;57.50;2.87;;;;;;;;;;5072788;28;21032;-68
2023/05/27 01:13:48;;;;;;;57.27;2.30;;;;;;;;;;5072845;28;20447;-68
2023/05/27 01:16:18;;;;;;;57.47;2.77;;;;;;;;;;5072964;28;20448;-68
2023/05/27 01:18:46;;;;;;;57.33;2.50;;;;;;;;;;5072447;28;20440;-68
2023/05/27 01:21:14;;;;;;;57.33;2.30;;;;;;;;;;5072702;28;20471;-69
2023/05/27 01:23:44;;;;;;;57.80;2.90;;;;;;;;;;5072653;28;20463;-69
2023/05/27 01:26:11;;;;;;;57.60;2.70;;;;;;;;;;5072673;28;20463;-69
2023/05/27 01:28:38;;;;;;;57.47;2.50;;;;;;;;;;5071630;28;20451;-68
2023/05/27 01:31:09;;;;;;;57.57;2.37;;;;;;;;;;5072416;28;20487;-69
2023/05/27 01:33:38;;;;;;;57.40;2.03;;;;;;;;;;5072389;28;20948;-68
2023/05/27 01:36:08;;;;;;;57.50;2.90;;;;;;;;;;5069226;28;20454;-68
2023/05/27 01:38:37;;;;;;;57.50;2.40;;;;;;;;;;5071342;28;20443;-68
2023/05/27 01:41:05;;;;;;;57.50;2.50;;;;;;;;;;5072411;28;20463;-69
2023/05/27 01:43:33;;;;;;;57.50;2.70;;;;;;;;;;5072282;28;20447;-68
2023/05/27 01:46:00;;;;;;;57.47;2.80;;;;;;;;;;5072230;28;20874;-68
2023/05/27 01:48:27;;;;;;;57.90;2.60;;;;;;;;;;5072255;28;20463;-68
2023/05/27 01:50:54;;;;;;;57.80;2.70;;;;;;;;;;5071567;28;20842;-69
2023/05/27 01:53:21;;;;;;;57.80;2.60;;;;;;;;;;5072224;28;20709;-68
2023/05/27 01:55:48;;;;;;;57.17;2.30;;;;;;;;;;5072007;28;20439;-70
2023/05/27 01:58:17;;;;;;;57.70;2.50;;;;;;;;;;5071852;28;20451;-68
2023/05/27 02:00:44;;;;;;;57.47;2.30;;;;;;;;;;5071181;28;20447;-68
2023/05/27 02:03:11;;;;;;;57.47;2.40;;;;;;;;;;5071811;28;20940;-68
2023/05/27 02:05:38;;;;;;;57.17;2.20;;;;;;;;;;5071849;28;20495;-69
2023/05/27 02:08:05;;;;;;;57.70;2.90;;;;;;;;;;5071920;28;20455;-68
2023/05/27 02:10:32;;;;;;;57.17;2.20;;;;;;;;;;5071035;28;20551;-69
2023/05/27 02:12:59;;;;;;;57.57;2.50;;;;;;;;;;5071491;28;20469;-68
2023/05/27 02:15:28;;;;;;;57.60;2.50;;;;;;;;;;5071602;28;20462;-68
2023/05/27 02:17:55;;;;;;;57.50;2.50;;;;;;;;;;5071674;28;20451;-68
2023/05/27 02:20:23;;;;;;;57.57;2.60;;;;;;;;;;5070708;28;20824;-69
2023/05/27 02:22:51;;;;;;;66.23;2.60;;;;;;;;;;5071671;28;20463;-68
2023/05/27 02:25:18;;;;;;;57.40;2.60;;;;;;;;;;5071377;28;20463;-68
2023/05/27 02:27:48;;;;;;;57.70;2.47;;;;;;;;;;5071500;28;20443;-69
2023/05/27 02:30:15;;;;;;;57.37;2.40;;;;;;;;;;5070768;28;20455;-69
2023/05/27 02:32:44;;;;;;;57.27;2.40;;;;;;;;;;5071093;28;20518;-68
2023/05/27 02:35:12;;;;;;;58.00;2.87;;;;;;;;;;5071512;28;20452;-68
2023/05/27 02:37:39;;;;;;;57.67;2.70;;;;;;;;;;5071847;28;20443;-68
2023/05/27 02:40:09;;;;;;;58.43;2.93;;;;;;;;;;5070465;28;20962;-69
2023/05/27 02:42:36;;;;;;;57.90;3.17;;;;;;;;;;5071396;28;20521;-68
2023/05/27 02:45:03;;;;;;;57.90;3.03;;;;;;;;;;5071345;28;20447;-69
2023/05/27 02:47:30;;;;;;;57.50;2.60;;;;;;;;;;5071403;28;20448;-68
2023/05/27 02:49:59;;;;;;;57.47;2.53;;;;;;;;;;5070420;28;20451;-68
2023/05/27 02:52:26;;;;;;;57.37;2.67;;;;;;;;;;5071062;28;20510;-68
2023/05/27 02:54:53;;;;;;;57.70;2.67;;;;;;;;;;5071333;28;20457;-68
2023/05/27 02:57:20;;;;;;;58.00;4.20;;;;;;;;;;5070975;28;20452;-69
2023/05/27 02:59:47;;;;;;;57.50;2.40;;;;;;;;;;5070447;28;20454;-69
2023/05/27 03:02:14;;;;;;;57.50;2.60;;;;;;;;;;5070978;28;20460;-68
2023/05/27 03:04:41;;;;;;;63.20;4.40;;;;;;;;;;5070968;28;20939;-68
2023/05/27 03:07:10;;;;;;;57.87;2.80;;;;;;;;;;5073012;28;20451;-68
2023/05/27 03:09:37;;;;;;;57.27;2.43;;;;;;;;;;5074338;28;20965;-68
2023/05/27 03:12:05;;;;;;;57.47;2.50;;;;;;;;;;5075113;28;20486;-68
2023/05/27 03:14:32;;;;;;;57.47;2.37;;;;;;;;;;5074959;28;20548;-68
2023/05/27 03:16:59;;;;;;;57.67;2.70;;;;;;;;;;5075205;28;20451;-68
2023/05/27 03:19:26;;;;;;;57.47;2.50;;;;;;;;;;5074398;28;20544;-68
2023/05/27 03:21:53;;;;;;;58.50;2.80;;;;;;;;;;5074925;28;20469;-68
2023/05/27 03:24:22;;;;;;;58.73;2.77;;;;;;;;;;5075087;28;20824;-68
2023/05/27 03:26:50;;;;;;;57.37;2.60;;;;;;;;;;5074623;28;20491;-68
2023/05/27 03:29:17;;;;;;;57.57;2.60;;;;;;;;;;5074183;28;20479;-68
2023/05/27 03:31:44;;;;;;;57.27;2.40;;;;;;;;;;5074766;28;20499;-68
2023/05/27 03:34:11;;;;;;;57.50;2.60;;;;;;;;;;5074984;28;20568;-68
2023/05/27 03:36:38;;;;;;;61.73;2.70;;;;;;;;;;5074869;28;20534;-68
2023/05/27 03:39:05;;;;;;;57.70;2.40;;;;;;;;;;5074112;28;20923;-69
2023/05/27 03:41:34;;;;;;;57.37;2.40;;;;;;;;;;5074388;28;20463;-69
2023/05/27 03:44:01;;;;;;;57.30;2.47;;;;;;;;;;5074748;28;20453;-68
2023/05/27 03:46:28;;;;;;;57.47;2.80;;;;;;;;;;5074607;28;20562;-68
2023/05/27 03:48:56;;;;;;;58.00;2.73;;;;;;;;;;5073795;28;20794;-68
2023/05/27 03:51:23;;;;;;;59.20;3.23;;;;;;;;;;5073980;28;20487;-68
2023/05/27 03:53:50;;;;;;;59.20;2.80;;;;;;;;;;5074223;28;20963;-68
2023/05/27 03:56:17;;;;;;;57.67;2.70;;;;;;;;;;5074491;28;20447;-69
2023/05/27 03:58:45;;;;;;;57.50;2.57;;;;;;;;;;5073590;28;20454;-68
2023/05/27 04:01:13;;;;;;;57.33;2.30;;;;;;;;;;5074194;28;20459;-68
2023/05/27 04:03:41;;;;;;;57.30;2.40;;;;;;;;;;5074202;28;20457;-68
2023/05/27 04:06:08;;;;;;;57.50;2.70;;;;;;;;;;5074376;28;20508;-68
2023/05/27 04:08:37;;;;;;;57.47;2.53;;;;;;;;;;5073058;28;20451;-68
2023/05/27 04:11:04;;;;;;;57.40;2.87;;;;;;;;;;5073954;28;20501;-68
2023/05/27 04:13:31;;;;;;;57.80;3.43;;;;;;;;;;5074086;28;20458;-68
2023/05/27 04:16:00;;;;;;;57.83;3.00;;;;;;;;;;5074043;28;20455;-68
2023/05/27 04:18:27;;;;;;;57.30;2.40;;;;;;;;;;5073577;28;20451;-68
2023/05/27 04:20:54;;;;;;;57.23;2.27;;;;;;;;;;5073100;28;20443;-68
2023/05/27 04:23:23;;;;;;;57.33;2.50;;;;;;;;;;5073864;28;20451;-68
2023/05/27 04:25:51;;;;;;;58.40;3.93;;;;;;;;;;5073680;28;20924;-68
2023/05/27 04:28:18;;;;;;;59.93;2.60;;;;;;;;;;5073774;28;20497;-68
2023/05/27 04:30:47;;;;;;;57.47;2.43;;;;;;;;;;5073037;28;20453;-68
2023/05/27 04:33:16;;;;;;;57.17;2.37;;;;;;;;;;5073506;28;20460;-68
2023/05/27 04:35:44;;;;;;;57.37;2.70;;;;;;;;;;5073648;28;20458;-68
2023/05/27 04:38:16;;;;;;;58.00;3.50;;;;;;;;;;5073598;28;20443;-68
2023/05/27 04:40:44;;;;;;;57.17;2.20;;;;;;;;;;5072682;28;20999;-69
2023/05/27 04:43:14;;;;;;;57.20;2.30;;;;;;;;;;5073364;28;20501;-68
2023/05/27 04:45:41;;;;;;;56.87;2.30;;;;;;;;;;5073455;28;20483;-68
2023/05/27 04:48:08;;;;;;;57.20;2.50;;;;;;;;;;5073018;28;20951;-68
2023/05/27 04:50:37;;;;;;;57.13;2.30;;;;;;;;;;5072831;28;20461;-68
2023/05/27 04:53:04;;;;;;;57.20;2.20;;;;;;;;;;5073271;28;20853;-69
2023/05/27 04:55:32;;;;;;;57.70;3.10;;;;;;;;;;5073339;28;20542;-68
2023/05/27 04:58:02;;;;;;;57.67;2.73;;;;;;;;;;5073144;28;20508;-68
2023/05/27 05:00:49;;;;;;;57.23;2.50;;;;;;;;;;5072505;28;20539;-68
2023/05/27 05:03:20;;;;;;;57.20;2.40;;;;;;;;;;5073216;28;20914;-68
2023/05/27 05:05:49;;;;;;;57.40;2.80;;;;;;;;;;5073212;28;20439;-68
2023/05/27 05:08:16;;;;;;;57.30;2.30;;;;;;;;;;5072906;28;20454;-69
2023/05/27 05:10:43;;;;;;;57.40;2.57;;;;;;;;;;5072368;28;20447;-68
2023/05/27 05:13:10;;;;;;;58.97;4.13;;;;;;;;;;5072606;28;20483;-68
2023/05/27 05:15:37;;;;;;;57.90;3.47;;;;;;;;;;5072944;28;20447;-68
2023/05/27 05:18:04;;;;;;;57.10;2.20;;;;;;;;;;5072898;28;20497;-68
2023/05/27 05:20:31;;;;;;;57.43;2.60;;;;;;;;;;5072070;28;21032;-68
2023/05/27 05:23:00;;;;;;;57.40;2.87;;;;;;;;;;5072775;28;20459;-68
2023/05/27 05:25:27;;;;;;;57.17;2.60;;;;;;;;;;5072388;28;20485;-68
2023/05/27 05:27:54;;;;;;;58.00;3.53;;;;;;;;;;5072707;28;20447;-69
2023/05/27 05:30:22;;;;;;;57.47;2.80;;;;;;;;;;5071484;28;20533;-68
2023/05/27 05:32:49;;;;;;;57.40;2.50;;;;;;;;;;5072252;28;21019;-68
2023/05/27 05:35:16;;;;;;;57.10;2.30;;;;;;;;;;5072611;28;20454;-68
2023/05/27 05:37:43;;;;;;;57.40;2.40;;;;;;;;;;5072538;28;20800;-68
2023/05/27 05:40:12;;;;;;;57.37;2.40;;;;;;;;;;5071382;28;20454;-68
2023/05/27 05:42:39;;;;;;;57.40;2.60;;;;;;;;;;5072096;28;20459;-69
2023/05/27 05:45:07;;;;;;;57.60;2.87;;;;;;;;;;5072487;28;20446;-69
2023/05/27 05:47:34;;;;;;;57.67;3.07;;;;;;;;;;5072089;28;20979;-68
2023/05/27 05:50:01;;;;;;;57.60;2.90;;;;;;;;;;5071554;28;20453;-69
2023/05/27 05:52:29;;;;;;;57.40;2.50;;;;;;;;;;5071787;28;20501;-69
2023/05/27 05:54:56;;;;;;;57.07;2.37;;;;;;;;;;5072209;28;20807;-69
2023/05/27 05:57:25;;;;;;;57.97;4.10;;;;;;;;;;5072033;28;20460;-69
2023/05/27 05:59:52;;;;;;;57.13;2.30;;;;;;;;;;5071425;28;20447;-69
2023/05/27 06:02:19;;;;;;;56.87;2.40;;;;;;;;;;5071776;28;20998;-69
2023/05/27 06:04:46;;;;;;;64.00;3.70;;;;;;;;;;5071817;28;20520;-69
2023/05/27 06:07:13;;;;;;;57.10;2.10;;;;;;;;;;5071882;28;20475;-69
2023/05/27 06:09:40;;;;;;;57.27;2.50;;;;;;;;;;5071065;28;20447;-69
2023/05/27 06:12:08;;;;;;;57.07;2.20;;;;;;;;;;5071706;28;20487;-69
2023/05/27 06:14:36;;;;;;;57.07;2.10;;;;;;;;;;5071917;28;20453;-68
2023/05/27 06:17:03;;;;;;;59.23;2.80;;;;;;;;;;5071871;28;20444;-69
2023/05/27 06:19:30;;;;;;;57.27;2.40;;;;;;;;;;5071177;28;20696;-69
2023/05/27 06:21:58;;;;;;;57.60;3.07;;;;;;;;;;5071310;28;20473;-68
2023/05/27 06:24:25;;;;;;;57.37;2.50;;;;;;;;;;5071470;28;20851;-69
2023/05/27 06:26:52;;;;;;;57.30;2.77;;;;;;;;;;5071677;28;20454;-69
2023/05/27 06:29:19;;;;;;;57.90;2.93;;;;;;;;;;5070672;28;20453;-69
2023/05/27 06:31:48;;;;;;;57.23;2.33;;;;;;;;;;5071328;28;20513;-69
2023/05/27 06:34:15;;;;;;;59.80;3.47;;;;;;;;;;5071322;28;20662;-69
2023/05/27 06:36:42;;;;;;;57.07;2.37;;;;;;;;;;5071913;28;20444;-69
2023/05/27 06:39:09;;;;;;;57.57;2.43;;;;;;;;;;5070489;28;20455;-69
2023/05/27 06:41:36;;;;;;;57.23;2.17;;;;;;;;;;5070505;28;20846;-69
2023/05/27 06:44:03;;;;;;;56.97;2.40;;;;;;;;;;5071480;28;20447;-69
2023/05/27 06:46:30;;;;;;;57.37;2.53;;;;;;;;;;5071207;28;21035;-69
2023/05/27 06:48:59;;;;;;;57.20;2.33;;;;;;;;;;5070615;28;20451;-69
2023/05/27 06:51:27;;;;;;;57.33;2.27;;;;;;;;;;5071261;28;20474;-69
2023/05/27 06:53:54;;;;;;;57.13;2.20;;;;;;;;;;5071067;28;20479;-69
2023/05/27 06:56:21;;;;;;;57.20;2.40;;;;;;;;;;5071255;28;20451;-69
2023/05/27 06:58:48;;;;;;;57.07;2.57;;;;;;;;;;5070585;28;20501;-69
2023/05/27 07:01:15;;;;;;;57.97;3.03;;;;;;;;;;5070939;28;20474;-69
2023/05/27 07:03:42;;;;;;;57.03;2.40;;;;;;;;;;5071349;28;20451;-69
2023/05/27 07:06:11;;;;;;;57.40;3.00;;;;;;;;;;5071021;28;20448;-69
2023/05/27 07:08:38;;;;;;;57.20;2.87;;;;;;;;;;5070415;28;20447;-69
2023/05/27 07:11:05;;;;;;;57.27;2.80;;;;;;;;;;5070917;28;20995;-69
2023/05/27 07:13:32;;;;;;;57.57;2.43;;;;;;;;;;5070971;28;20505;-69
2023/05/27 07:15:59;;;;;;;58.37;3.10;;;;;;;;;;5070910;28;20458;-69
2023/05/27 07:18:26;;;;;;;57.70;3.00;;;;;;;;;;5071107;28;20498;-69
2023/05/27 07:20:53;;;;;;;57.07;2.40;;;;;;;;;;5070548;28;20451;-69
2023/05/27 07:23:22;;;;;;;57.30;2.40;;;;;;;;;;5070759;28;20453;-69
2023/05/27 07:25:49;;;;;;;57.40;2.20;;;;;;;;;;5071446;28;20442;-69
2023/05/27 07:28:16;;;;;;;58.00;2.77;;;;;;;;;;5070729;28;20796;-69
2023/05/27 07:30:44;;;;;;;57.20;2.70;;;;;;;;;;5070264;28;20457;-69
2023/05/27 07:33:11;;;;;;;57.07;2.30;;;;;;;;;;5070987;28;20846;-69
2023/05/27 07:35:38;;;;;;;57.30;2.30;;;;;;;;;;5070617;28;20944;-69
2023/05/27 07:38:05;;;;;;;57.13;2.30;;;;;;;;;;5070738;28;20482;-69
2023/05/27 07:40:33;;;;;;;57.17;2.47;;;;;;;;;;5070276;28;20815;-69
2023/05/27 07:43:01;;;;;;;57.10;2.87;;;;;;;;;;5070506;28;20468;-69
2023/05/27 07:45:28;;;;;;;57.37;2.67;;;;;;;;;;5070855;28;20443;-69
2023/05/27 07:47:55;;;;;;;57.47;2.80;;;;;;;;;;5070884;28;20447;-69
2023/05/27 07:50:22;;;;;;;58.50;2.60;;;;;;;;;;5069851;28;20932;-69
2023/05/27 07:52:49;;;;;;;56.97;2.10;;;;;;;;;;5071889;28;20493;-69
2023/05/27 07:55:16;;;;;;;57.03;2.50;;;;;;;;;;5074551;28;20496;-69
2023/05/27 07:57:45;;;;;;;57.07;2.20;;;;;;;;;;5074106;28;20455;-69
2023/05/27 08:00:12;;;;;;;57.50;2.87;;;;;;;;;;5073577;28;20487;-69
2023/05/27 08:02:39;;;;;;;57.60;2.50;;;;;;;;;;5074353;28;20481;-69
2023/05/27 08:05:07;;;;;;;58.77;2.80;;;;;;;;;;5074113;28;20451;-69
2023/05/27 08:07:34;;;;;;;57.47;2.93;;;;;;;;;;5074308;28;20447;-69
2023/05/27 08:10:01;;;;;;;58.30;3.30;;;;;;;;;;5073123;28;20826;-69
2023/05/27 08:12:28;;;;;;;57.20;2.37;;;;;;;;;;5073990;28;20491;-69
2023/05/27 08:14:56;;;;;;;57.13;2.43;;;;;;;;;;5074130;28;20457;-69
2023/05/27 08:17:23;;;;;;;57.20;2.50;;;;;;;;;;5074068;28;20449;-69
2023/05/27 08:19:51;;;;;;;57.27;2.40;;;;;;;;;;5073190;28;20444;-69
2023/05/27 08:22:18;;;;;;;57.10;2.47;;;;;;;;;;5074008;28;20471;-69
2023/05/27 08:24:45;;;;;;;58.27;2.80;;;;;;;;;;5073496;28;20467;-69
2023/05/27 08:27:15;;;;;;;57.33;2.50;;;;;;;;;;5073725;28;20970;-69
2023/05/27 08:29:42;;;;;;;57.20;2.50;;;;;;;;;;5073104;28;21076;-69
2023/05/27 08:32:10;;;;;;;58.00;2.90;;;;;;;;;;5073460;28;20555;-69
2023/05/27 08:34:37;;;;;;;57.23;2.17;;;;;;;;;;5073787;28;20451;-69
2023/05/27 08:37:05;;;;;;;58.13;2.60;;;;;;;;;;5073482;28;20447;-69
2023/05/27 08:39:32;;;;;;;57.07;2.40;;;;;;;;;;5073156;28;20457;-69
2023/05/27 08:42:02;;;;;;;57.47;3.10;;;;;;;;;;5073626;28;20469;-69
2023/05/27 08:44:29;;;;;;;57.50;2.40;;;;;;;;;;5073346;28;21011;-69
2023/05/27 08:46:57;;;;;;;56.73;2.10;;;;;;;;;;5073368;28;20490;-69
2023/05/27 08:49:25;;;;;;;57.97;2.70;;;;;;;;;;5072814;28;20482;-69
2023/05/27 08:51:53;;;;;;;57.00;2.60;;;;;;;;;;5072686;28;20502;-69
2023/05/27 08:54:20;;;;;;;58.20;3.43;;;;;;;;;;5073477;28;20493;-69
2023/05/27 08:56:48;;;;;;;57.20;2.20;;;;;;;;;;5073304;28;20828;-69
2023/05/27 08:59:15;;;;;;;57.20;2.10;;;;;;;;;;5072568;28;20447;-69
2023/05/27 09:01:42;;;;;;;57.27;2.50;;;;;;;;;;5073345;28;20472;-69
2023/05/27 09:04:10;;;;;;;57.60;2.20;;;;;;;;;;5072466;28;20447;-69
2023/05/27 09:06:38;;;;;;;58.50;3.23;;;;;;;;;;5073205;28;20815;-69
2023/05/27 09:09:06;;;;;;;57.50;2.83;;;;;;;;;;5072349;28;20610;-69
2023/05/27 09:11:35;;;;;;;57.03;2.50;;;;;;;;;;5072786;28;20511;-69
2023/05/27 09:14:02;;;;;;;57.20;2.83;;;;;;;;;;5072842;28;20523;-69
2023/05/27 09:16:29;;;;;;;56.63;2.53;;;;;;;;;;5072817;28;20448;-69
2023/05/27 09:18:57;;;;;;;57.87;3.23;;;;;;;;;;5071806;28;20939;-69
2023/05/27 09:21:26;;;;;;;57.17;2.40;;;;;;;;;;5072511;28;20474;-69
2023/05/27 09:23:58;;;;;;;56.87;2.60;;;;;;;;;;5072684;28;20451;-69
2023/05/27 09:26:25;;;;;;;57.27;2.73;;;;;;;;;;5072544;28;20454;-69
2023/05/27 09:28:52;;;;;;;58.10;2.87;;;;;;;;;;5072016;28;20451;-69
2023/05/27 09:31:20;;;;;;;57.07;2.60;;;;;;;;;;5072326;28;20509;-69
2023/05/27 09:33:47;;;;;;;57.23;2.80;;;;;;;;;;5072565;28;20483;-69
2023/05/27 09:36:21;;;;;;;57.17;2.40;;;;;;;;;;5072679;28;20463;-69
2023/05/27 09:38:48;;;;;;;57.80;2.30;;;;;;;;;;5071551;28;20447;-69
2023/05/27 09:41:16;;;;;;;57.00;2.47;;;;;;;;;;5072139;28;20469;-69
2023/05/27 09:43:43;;;;;;;57.00;2.23;;;;;;;;;;5072206;28;20819;-69
2023/05/27 09:46:13;;;;;;;57.50;2.40;;;;;;;;;;5072379;28;20792;-69
2023/05/27 09:48:40;;;;;;;58.20;2.70;;;;;;;;;;5071287;28;20451;-70
2023/05/27 09:51:07;;;;;;;56.93;2.60;;;;;;;;;;5072249;28;20467;-69
2023/05/27 09:53:35;;;;;;;56.47;2.30;;;;;;;;;;5071969;28;20475;-69
2023/05/27 09:56:02;;;;;;;57.57;3.00;;;;;;;;;;5071984;28;20458;-69
2023/05/27 09:58:31;;;;;;;57.83;2.60;;;;;;;;;;5071554;28;20458;-69
2023/05/27 10:00:59;;;;;;;58.67;2.30;;;;;;;;;;5071831;28;21073;-70
2023/05/27 10:03:28;;;;;;;57.87;2.50;;;;;;;;;;5071924;28;20447;-70
2023/05/27 10:05:56;;;;;;;56.80;2.27;;;;;;;;;;5071932;28;20501;-70
2023/05/27 10:08:23;;;;;;;56.93;2.23;;;;;;;;;;5071919;28;20453;-70
2023/05/27 10:10:50;;;;;;;57.50;2.40;;;;;;;;;;5071025;28;20454;-69
2023/05/27 10:13:18;;;;;;;57.13;2.13;;;;;;;;;;5071775;28;20475;-70
2023/05/27 10:15:50;;;;;;;56.80;2.23;;;;;;;;;;5071739;28;20447;-70
2023/05/27 10:18:23;;;;;;;56.97;2.40;;;;;;;;;;5071707;28;20451;-70
2023/05/27 10:20:51;;;;;;;56.77;1.80;;;;;;;;;;5070874;28;20454;-70
2023/05/27 10:23:21;;;;;;;57.30;2.60;;;;;;;;;;5071357;28;20443;-70
2023/05/27 10:25:48;;;;;;;56.87;2.07;;;;;;;;;;5071692;28;20469;-70
2023/05/27 10:28:25;;;;;;;56.77;1.90;;;;;;;;;;5071344;28;20966;-70
2023/05/27 10:30:53;;;;;;;56.70;2.27;;;;;;;;;;5070802;28;20451;-70
2023/05/27 10:33:29;;;;;;;56.67;2.27;;;;;;;;;;5071649;28;20486;-70
2023/05/27 10:35:56;;;;;;;58.60;2.20;;;;;;;;;;5071332;28;20443;-70
2023/05/27 10:38:24;;;;;;;56.37;2.20;;;;;;;;;;5071463;28;20454;-70
2023/05/27 10:41:00;;;;;;;56.17;2.00;;;;;;;;;;5070808;28;20447;-70
2023/05/27 10:43:29;;;;;;;57.03;1.90;;;;;;;;;;5071649;28;20869;-68
2023/05/27 10:46:04;;;;;;;56.57;2.90;;;;;;;;;;5071208;28;20478;-69
2023/05/27 10:48:32;;;;;;;56.43;2.20;;;;;;;;;;5071391;28;20447;-68
2023/05/27 10:51:00;;;;;;;56.57;2.10;;;;;;;;;;5071325;28;20458;-70
2023/05/27 10:53:27;;;;;;;56.50;1.93;;;;;;;;;;5071057;28;20988;-69
2023/05/27 10:55:54;;;;;;;56.87;2.70;;;;;;;;;;5071071;28;20461;-69
2023/05/27 10:58:22;;;;;;;56.57;2.30;;;;;;;;;;5070948;28;20447;-68
2023/05/27 11:00:50;;;;;;;57.53;2.10;;;;;;;;;;5070878;28;20469;-68
2023/05/27 11:03:25;;;;;;;55.90;1.70;;;;;;;;;;5070997;28;21019;-68
2023/05/27 11:06:02;;;;;;;56.60;2.10;;;;;;;;;;5071072;28;20819;-68
2023/05/27 11:08:29;;;;;;;56.10;2.30;;;;;;;;;;5070947;28;20447;-68
2023/05/27 11:11:00;;;;;;;56.23;2.10;;;;;;;;;;5070651;28;20947;-69
2023/05/27 11:13:31;;;;;;;57.47;2.60;;;;;;;;;;5070785;28;21017;-69
2023/05/27 11:15:58;;;;;;;56.50;2.43;;;;;;;;;;5070864;28;20817;-69
2023/05/27 11:18:27;;;;;;;57.57;2.17;;;;;;;;;;5071114;28;20462;-68
2023/05/27 11:20:54;;;;;;;56.07;2.00;;;;;;;;;;5070567;28;20822;-69
2023/05/27 11:23:22;;;;;;;56.07;2.27;;;;;;;;;;5070942;28;20444;-68
2023/05/27 11:25:49;;;;;;;57.10;3.00;;;;;;;;;;5070804;28;20460;-69
2023/05/27 11:28:17;;;;;;;56.10;2.10;;;;;;;;;;5073008;28;20808;-69
2023/05/27 11:30:44;;;;;;;55.97;2.00;;;;;;;;;;5074266;28;20447;-69
2023/05/27 11:33:12;;;;;;;57.17;2.70;;;;;;;;;;5074630;28;21017;-69
2023/05/27 11:35:40;;;;;;;56.00;2.20;;;;;;;;;;5074687;28;20451;-69
2023/05/27 11:38:17;;;;;;;55.53;1.80;;;;;;;;;;5074623;28;20454;-69
2023/05/27 11:40:44;;;;;;;56.00;2.10;;;;;;;;;;5073724;28;20447;-69
2023/05/27 11:43:18;;;;;;;57.37;2.70;;;;;;;;;;5074753;28;20451;-68
2023/05/27 11:45:45;;;;;;;55.87;1.87;;;;;;;;;;5074587;28;20454;-68
2023/05/27 11:48:12;;;;;;;56.40;2.40;;;;;;;;;;5074403;28;20899;-68
2023/05/27 11:50:40;;;;;;;56.40;2.43;;;;;;;;;;5074004;28;20448;-69
2023/05/27 11:53:08;;;;;;;55.77;1.90;;;;;;;;;;5074371;28;20443;-69
2023/05/27 11:55:35;;;;;;;56.10;2.50;;;;;;;;;;5074490;28;20533;-69
2023/05/27 11:58:02;;;;;;;55.87;2.00;;;;;;;;;;5074381;28;20454;-68
2023/05/27 12:00:30;;;;;;;56.20;2.17;;;;;;;;;;5073509;28;20797;-69
2023/05/27 12:02:57;;;;;;;55.97;1.77;;;;;;;;;;5074022;28;21006;-69
2023/05/27 12:05:24;;;;;;;56.30;1.90;;;;;;;;;;5074292;28;20473;-68
2023/05/27 12:07:53;;;;;;;59.13;4.70;;;;;;;;;;5074001;28;20462;-69
2023/05/27 12:10:21;;;;;;;57.37;2.10;;;;;;;;;;5073544;28;20455;-68
2023/05/27 12:12:48;;;;;;;56.70;2.20;;;;;;;;;;5073903;28;21209;-68
2023/05/27 12:15:15;;;;;;;55.87;2.23;;;;;;;;;;5074225;28;20493;-68
2023/05/27 12:17:42;;;;;;;56.10;2.03;;;;;;;;;;5073911;28;20447;-69
2023/05/27 12:20:11;;;;;;;56.83;2.53;;;;;;;;;;5072896;28;20554;-69
2023/05/27 12:22:38;;;;;;;55.77;2.00;;;;;;;;;;5073704;28;20824;-69
2023/05/27 12:25:07;;;;;;;57.20;2.07;;;;;;;;;;5073821;28;20451;-68
2023/05/27 12:27:34;;;;;;;57.53;2.70;;;;;;;;;;5073680;28;20447;-69
2023/05/27 12:30:01;;;;;;;55.80;2.00;;;;;;;;;;5072937;28;20444;-69
2023/05/27 12:32:28;;;;;;;55.77;1.77;;;;;;;;;;5074026;28;20463;-69
2023/05/27 12:34:55;;;;;;;56.50;2.27;;;;;;;;;;5073705;28;20479;-69
2023/05/27 12:37:24;;;;;;;56.37;2.33;;;;;;;;;;5073800;28;20447;-69
2023/05/27 12:39:51;;;;;;;57.00;2.83;;;;;;;;;;5071681;28;20451;-69
2023/05/27 12:42:20;;;;;;;56.20;2.57;;;;;;;;;;5073436;28;21025;-69
2023/05/27 12:44:47;;;;;;;56.17;1.87;;;;;;;;;;5073572;28;20443;-69
2023/05/27 12:47:14;;;;;;;56.10;2.00;;;;;;;;;;5073112;28;20447;-69
2023/05/27 12:49:42;;;;;;;56.57;2.43;;;;;;;;;;5072722;28;20448;-69
2023/05/27 12:52:09;;;;;;;55.60;1.97;;;;;;;;;;5073355;28;20503;-69
2023/05/27 12:54:37;;;;;;;55.60;2.17;;;;;;;;;;5073547;28;20479;-69
2023/05/27 12:57:05;;;;;;;56.20;2.10;;;;;;;;;;5073222;28;20977;-69
2023/05/27 12:59:33;;;;;;;55.53;1.87;;;;;;;;;;5072385;28;20443;-69
2023/05/27 13:02:01;;;;;;;56.80;2.63;;;;;;;;;;5073120;28;20478;-68
2023/05/27 13:04:28;;;;;;;55.90;2.30;;;;;;;;;;5073019;28;20529;-69
2023/05/27 13:06:55;;;;;;;55.90;2.20;;;;;;;;;;5073139;28;20454;-69
2023/05/27 13:09:23;;;;;;;57.60;2.67;;;;;;;;;;5072565;28;20504;-69
2023/05/27 13:11:50;;;;;;;55.70;1.80;;;;;;;;;;5072835;28;20464;-69
2023/05/27 13:14:17;;;;;;;55.80;1.93;;;;;;;;;;5072592;28;20483;-69
2023/05/27 13:16:45;;;;;;;57.20;3.80;;;;;;;;;;5073098;28;20450;-68
2023/05/27 13:19:12;;;;;;;55.50;1.80;;;;;;;;;;5071962;28;20966;-69
2023/05/27 13:21:39;;;;;;;55.67;1.93;;;;;;;;;;5072948;28;20809;-69
2023/05/27 13:24:07;;;;;;;55.70;1.97;;;;;;;;;;5072544;28;20951;-69
2023/05/27 13:26:34;;;;;;;56.00;2.50;;;;;;;;;;5072678;28;20443;-69
2023/05/27 13:29:02;;;;;;;57.60;2.17;;;;;;;;;;5071864;28;20456;-69
2023/05/27 13:31:29;;;;;;;55.93;2.17;;;;;;;;;;5072642;28;20475;-69
2023/05/27 13:33:58;;;;;;;55.47;2.30;;;;;;;;;;5072552;28;20461;-69
2023/05/27 13:36:25;;;;;;;55.90;1.87;;;;;;;;;;5072522;28;20547;-69
2023/05/27 13:38:52;;;;;;;55.67;1.90;;;;;;;;;;5071881;28;20454;-69
2023/05/27 13:41:19;;;;;;;55.67;1.97;;;;;;;;;;5072794;28;20467;-69
2023/05/27 13:43:47;;;;;;;56.00;2.10;;;;;;;;;;5072182;28;20812;-69
2023/05/27 13:46:14;;;;;;;56.10;1.97;;;;;;;;;;5072487;28;20447;-69
2023/05/27 13:48:41;;;;;;;55.97;2.40;;;;;;;;;;5071341;28;20451;-69
2023/05/27 13:51:10;;;;;;;55.50;1.90;;;;;;;;;;5071428;28;20499;-71
2023/05/27 13:53:37;;;;;;;55.97;2.23;;;;;;;;;;5072120;28;20490;-71
2023/05/27 13:56:04;;;;;;;56.50;2.10;;;;;;;;;;5071699;28;20479;-71
2023/05/27 13:58:31;;;;;;;55.70;1.60;;;;;;;;;;5071820;28;20455;-69
2023/05/27 14:00:58;;;;;;;56.00;2.00;;;;;;;;;;5071685;28;20451;-69
2023/05/27 14:03:25;;;;;;;55.57;1.77;;;;;;;;;;5071977;28;20451;-69
2023/05/27 14:05:52;;;;;;;55.80;2.00;;;;;;;;;;5071881;28;20457;-69
2023/05/27 14:08:21;;;;;;;56.00;2.00;;;;;;;;;;5071904;28;20820;-69
2023/05/27 14:10:49;;;;;;;55.47;1.50;;;;;;;;;;5071267;28;20450;-69
2023/05/27 14:13:16;;;;;;;55.77;1.70;;;;;;;;;;5072063;28;20451;-69
2023/05/27 14:15:43;;;;;;;56.00;2.17;;;;;;;;;;5071885;28;20487;-69
2023/05/27 14:18:10;;;;;;;56.40;1.80;;;;;;;;;;5071679;28;20444;-69
2023/05/27 14:20:37;;;;;;;57.87;2.43;;;;;;;;;;5071075;28;20461;-69
2023/05/27 14:23:06;;;;;;;55.80;1.80;;;;;;;;;;5071575;28;20838;-69
2023/05/27 14:25:34;;;;;;;56.27;2.63;;;;;;;;;;5071715;28;20876;-69
2023/05/27 14:28:03;;;;;;;55.83;2.57;;;;;;;;;;5071669;28;20467;-69
2023/05/27 14:30:35;;;;;;;55.93;2.13;;;;;;;;;;5070939;28;20443;-69
2023/05/27 14:33:03;;;;;;;55.77;1.90;;;;;;;;;;5071648;28;20471;-69
2023/05/27 14:35:30;;;;;;;55.70;1.80;;;;;;;;;;5071145;28;21010;-69